createdAt,value
2023-05-05T00:09:55.419Z,100592.00
2023-05-05T00:24:57.433Z,100600.69
2023-05-05T00:39:59.425Z,100597.78
2023-05-05T00:55:01.816Z,100587.97
2023-05-05T01:10:22.317Z,100579.53
2023-05-05T01:26:02.754Z,100567.47
2023-05-05T01:41:12.994Z,100577.34
2023-05-05T01:56:16.970Z,100552.00
2023-05-05T02:11:19.658Z,100556.03
2023-05-05T02:26:24.360Z,100560.56
2023-05-05T02:41:28.551Z,100565.16
2023-05-05T02:56:51.653Z,100564.59
2023-05-05T03:12:05.694Z,100577.50
2023-05-05T03:27:07.543Z,100574.31
2023-05-05T03:42:09.411Z,100574.75
2023-05-05T03:57:11.515Z,100602.22
2023-05-05T04:12:13.788Z,100585.88
2023-05-05T04:27:16.181Z,100594.22
2023-05-05T04:42:21.225Z,100599.50
2023-05-05T04:57:23.564Z,100587.66
2023-05-05T05:12:27.368Z,100574.75
2023-05-05T05:27:29.276Z,100578.88
2023-05-05T05:42:31.253Z,100567.59
2023-05-05T05:57:33.150Z,100565.34
2023-05-05T06:12:35.062Z,100553.16
2023-05-05T06:27:36.978Z,100546.94
2023-05-05T06:42:42.242Z,100544.69
2023-05-05T06:57:44.261Z,100537.75
2023-05-05T07:12:47.103Z,100519.09
2023-05-05T07:27:49.080Z,100514.09
2023-05-05T07:42:51.133Z,100495.88
2023-05-05T07:57:54.791Z,100486.56
2023-05-05T08:12:56.739Z,100492.25
2023-05-05T08:27:58.632Z,100476.41
2023-05-05T08:43:01.559Z,100476.50
2023-05-05T08:58:06.384Z,100457.59
2023-05-05T09:13:08.627Z,100452.63
2023-05-05T09:28:20.330Z,100460.94
2023-05-05T09:43:24.035Z,100444.81
2023-05-05T09:58:28.676Z,100439.88
2023-05-05T10:13:34.019Z,100424.97
2023-05-05T10:28:45.982Z,100425.94
2023-05-05T10:43:48.802Z,100432.94
2023-05-05T10:58:59.830Z,100423.06
2023-05-05T11:14:22.509Z,100410.03
2023-05-05T11:29:25.066Z,100398.28
2023-05-05T11:44:34.075Z,100379.53
2023-05-05T11:59:38.000Z,100364.22
2023-05-05T12:14:53.123Z,100344.97
2023-05-05T12:29:56.860Z,100339.13
2023-05-05T12:44:58.800Z,100315.63
2023-05-05T13:00:14.042Z,100309.94
2023-05-05T13:15:16.982Z,100305.47
2023-05-05T13:30:18.869Z,100295.88
2023-05-05T13:45:20.957Z,100281.38
2023-05-05T14:00:27.124Z,100269.91
2023-05-05T14:15:29.546Z,100260.31
2023-05-05T14:30:31.501Z,100256.31
2023-05-05T14:45:33.774Z,100238.41
2023-05-05T15:00:35.779Z,100218.09
2023-05-05T15:15:37.634Z,100213.63
2023-05-05T15:30:39.976Z,100206.09
2023-05-05T15:45:41.911Z,100197.25
2023-05-05T16:00:43.821Z,100196.75
2023-05-05T16:15:46.478Z,100196.50
2023-05-05T16:30:48.336Z,100200.28
2023-05-05T16:45:50.210Z,100205.94
2023-05-05T17:00:53.104Z,100209.56
2023-05-05T17:15:55.307Z,100210.69
2023-05-05T17:31:00.074Z,100230.06
2023-05-05T17:46:01.968Z,100234.03
2023-05-05T18:01:04.359Z,100237.13
2023-05-05T18:16:06.867Z,100243.38
2023-05-05T18:31:08.855Z,100236.66
2023-05-05T18:46:11.092Z,100233.50
2023-05-05T19:01:13.048Z,100218.72
2023-05-05T19:16:15.066Z,100211.34
2023-05-05T19:31:16.915Z,100207.41
2023-05-05T19:46:19.586Z,100219.03
2023-05-05T20:01:22.297Z,100220.09
2023-05-05T20:16:24.562Z,100215.38
2023-05-05T20:31:26.619Z,100215.78
2023-05-05T20:46:28.548Z,100217.13
2023-05-05T21:01:30.930Z,100213.63
2023-05-05T21:16:32.930Z,100217.66
2023-05-05T21:31:34.792Z,100223.94
2023-05-05T21:46:36.712Z,100217.56
2023-05-05T22:01:38.748Z,100229.94
2023-05-05T22:16:40.782Z,100223.69
2023-05-05T22:31:42.815Z,100218.66
2023-05-05T22:46:44.772Z,100218.97
2023-05-05T23:01:46.993Z,100226.25
2023-05-05T23:16:49.000Z,100237.16
2023-05-05T23:31:51.032Z,100237.25
2023-05-05T23:46:52.851Z,100246.19
